Stanford in the Vale, United Kingdom
Current Conditions -  °F | °C
As of 9:14 AM on Wednesday 28 Jan 2015 (Local Time) from EGVN Reporting Station
Drizzle Drizzle  
Wind Chill: 43°   Ceiling: 700
Heat Index: 48°   Visibility: 2.5mi
Dew Point: 46°   Wind: 13mph
Humidity: 93%   Direction: 250°WSW
Pressure: 29.56"   Gusts: 30mph
Location:  51.64°N, 1.51°W
Report Text: EGVN 280914Z 25011G26KT 4000 -DZ SCT005 BKN007 09/08 Q1001 YLO1 TEMPO FEW005 BKN008 GRN
Loading
Personal Weather Stations






























Interactive Weather Map New forecast layout! Learn more

10-Day Weather Forecast

Advertisements
Track Severe Weather on mobile